createdAt,value
2022-12-15T05:33:35.274Z,71.92
2022-12-15T05:36:49.303Z,71.91
2022-12-15T05:40:03.117Z,73.48
2022-12-15T05:43:21.628Z,74.34
2022-12-15T05:46:38.645Z,72.63
2022-12-15T05:49:53.578Z,71.54
2022-12-15T05:53:07.267Z,72.71
2022-12-15T05:56:21.150Z,72.73
2022-12-15T05:59:35.051Z,71.82
2022-12-15T06:02:49.853Z,71.52
2022-12-15T06:06:05.814Z,71.42
2022-12-15T06:09:19.603Z,70.98
2022-12-15T06:12:33.433Z,70.08
2022-12-15T06:15:56.073Z,70.41
2022-12-15T06:19:09.967Z,70.05
2022-12-15T06:22:25.246Z,69.05
2022-12-15T06:25:39.052Z,67.89
2022-12-15T06:28:53.114Z,67.87
2022-12-15T06:32:07.085Z,68.99
2022-12-15T06:35:21.418Z,68.63
2022-12-15T06:38:36.614Z,68.47
2022-12-15T06:41:50.449Z,67.93
2022-12-15T06:45:04.494Z,68.24
2022-12-15T06:48:18.159Z,69.84
2022-12-15T06:51:32.363Z,70.83
2022-12-15T06:54:47.553Z,71.56
2022-12-15T06:58:01.404Z,72.20
2022-12-15T07:01:15.714Z,71.45
2022-12-15T07:04:30.579Z,71.10
2022-12-15T07:07:45.655Z,71.54
2022-12-15T07:11:00.925Z,70.98
2022-12-15T07:14:14.822Z,72.03
2022-12-15T07:17:28.402Z,72.04
2022-12-15T07:20:42.082Z,71.04
2022-12-15T07:23:57.324Z,69.87
2022-12-15T07:27:13.200Z,68.54
2022-12-15T07:30:27.112Z,69.67
2022-12-15T07:33:40.717Z,70.74
2022-12-15T07:36:54.855Z,70.51
2022-12-15T07:40:10.020Z,68.87
2022-12-15T07:43:25.211Z,69.67
2022-12-15T07:46:39.195Z,70.84
2022-12-15T07:49:53.361Z,71.07
2022-12-15T07:53:07.137Z,72.16
2022-12-15T07:56:21.179Z,72.78
2022-12-15T07:59:36.054Z,71.83
2022-12-15T08:02:50.101Z,70.68
2022-12-15T08:06:05.581Z,70.23
2022-12-15T08:09:20.249Z,70.27
2022-12-15T08:12:34.101Z,70.59
2022-12-15T08:15:49.386Z,70.08
2022-12-15T08:19:03.581Z,69.35
2022-12-15T08:22:17.393Z,68.79
2022-12-15T08:25:31.173Z,68.89
2022-12-15T08:28:45.012Z,68.42
2022-12-15T08:32:00.334Z,68.11
2022-12-15T08:35:38.947Z,67.00
2022-12-15T08:38:52.181Z,68.94
2022-12-15T08:42:06.156Z,68.59
2022-12-15T08:45:19.919Z,67.84
2022-12-15T08:48:35.425Z,67.49
2022-12-15T08:51:50.148Z,67.37
2022-12-15T08:55:04.485Z,67.89
2022-12-15T08:58:18.304Z,67.73
2022-12-15T09:01:32.972Z,67.95
2022-12-15T09:04:48.561Z,67.89
2022-12-15T09:08:06.539Z,67.88
2022-12-15T09:11:20.748Z,69.50
2022-12-15T09:14:34.666Z,69.80
2022-12-15T09:17:48.345Z,69.38
2022-12-15T09:21:04.277Z,69.77
2022-12-15T09:24:27.424Z,69.34
2022-12-15T09:27:43.086Z,68.83
2022-12-15T09:31:00.391Z,68.75
2022-12-15T09:34:15.074Z,68.03
2022-12-15T09:37:30.991Z,67.34
2022-12-15T09:40:44.777Z,68.62
2022-12-15T09:44:04.653Z,68.91
2022-12-15T09:47:20.355Z,69.60
2022-12-15T09:50:36.194Z,69.19
2022-12-15T09:53:55.796Z,67.52
2022-12-15T09:57:13.375Z,68.73
2022-12-15T10:00:29.436Z,68.18
2022-12-15T10:03:49.817Z,70.02
2022-12-15T10:07:07.227Z,70.14
2022-12-15T10:10:25.318Z,69.27
2022-12-15T10:13:42.002Z,68.07
2022-12-15T10:17:02.526Z,66.73
2022-12-15T10:20:18.941Z,65.72
2022-12-15T10:23:34.798Z,66.31
2022-12-15T10:26:55.548Z,67.16
2022-12-15T10:30:10.795Z,66.19
2022-12-15T10:33:25.096Z,66.04
2022-12-15T10:36:39.009Z,66.29
2022-12-15T10:39:52.754Z,67.34
2022-12-15T10:43:09.437Z,67.38
2022-12-15T10:46:24.685Z,66.76
2022-12-15T10:49:38.781Z,67.59
2022-12-15T10:52:52.586Z,67.28
2022-12-15T10:56:07.270Z,66.01
2022-12-15T10:59:26.154Z,66.95
2022-12-15T11:02:42.276Z,68.42
2022-12-15T11:05:57.240Z,67.33
2022-12-15T11:09:28.194Z,66.36
2022-12-15T11:13:01.966Z,67.22
2022-12-15T11:16:17.740Z,66.17
2022-12-15T11:19:35.169Z,65.88
2022-12-15T11:22:51.785Z,67.18
2022-12-15T11:29:56.667Z,66.95
2022-12-15T11:33:12.090Z,67.36
2022-12-15T11:36:44.780Z,66.51
2022-12-15T11:40:05.424Z,66.47
2022-12-15T11:47:31.536Z,66.79
2022-12-15T11:50:53.592Z,65.98
2022-12-15T11:54:21.047Z,65.60
2022-12-15T11:57:46.438Z,64.99
2022-12-15T12:01:07.923Z,64.75
2022-12-15T12:04:23.242Z,64.73
2022-12-15T12:07:42.517Z,64.40
2022-12-15T12:11:00.156Z,63.91
2022-12-15T12:14:24.249Z,63.10
2022-12-15T12:17:45.788Z,62.88
2022-12-15T12:21:01.396Z,62.78
2022-12-15T12:24:19.717Z,63.36
2022-12-15T12:27:37.655Z,64.51
2022-12-15T12:30:51.504Z,65.06
2022-12-15T12:34:10.189Z,65.12
2022-12-15T12:37:26.043Z,66.95
2022-12-15T12:40:49.791Z,67.20
2022-12-15T12:44:05.432Z,67.20
2022-12-15T12:47:22.514Z,67.14
2022-12-15T12:50:36.323Z,68.29
2022-12-15T12:53:50.275Z,67.59
2022-12-15T12:57:24.613Z,67.71
2022-12-15T13:00:38.696Z,68.44
2022-12-15T13:04:09.105Z,67.93
2022-12-15T13:07:30.143Z,67.46
2022-12-15T13:10:44.758Z,66.45
2022-12-15T13:14:03.630Z,67.15
2022-12-15T13:17:29.615Z,67.26
2022-12-15T13:20:43.605Z,66.99
2022-12-15T13:23:59.710Z,68.02
2022-12-15T13:27:15.518Z,67.67
2022-12-15T13:30:30.988Z,67.84
2022-12-15T13:33:46.426Z,68.88
2022-12-15T13:37:02.748Z,68.82
2022-12-15T13:40:26.532Z,69.52
2022-12-15T13:43:43.878Z,69.82
2022-12-15T13:47:07.683Z,70.13
2022-12-15T13:50:29.995Z,70.70
2022-12-15T13:53:44.809Z,70.61
2022-12-15T13:57:05.964Z,71.47
2022-12-15T14:00:20.238Z,72.29
2022-12-15T14:03:35.991Z,71.33
2022-12-15T14:06:52.067Z,72.19
2022-12-15T14:10:06.592Z,73.83
2022-12-15T14:13:22.316Z,73.18
2022-12-15T14:16:36.465Z,72.93
2022-12-15T14:19:51.764Z,74.03
2022-12-15T14:23:14.244Z,73.37
2022-12-15T14:26:30.934Z,74.06
2022-12-15T14:29:44.931Z,73.75
2022-12-15T14:32:59.314Z,73.56
2022-12-15T14:36:15.098Z,73.34
2022-12-15T14:39:31.286Z,73.63
2022-12-15T14:42:45.097Z,73.27
2022-12-15T14:46:07.703Z,72.81
2022-12-15T14:49:22.826Z,72.07
2022-12-15T14:52:39.186Z,71.08
2022-12-15T14:55:53.016Z,72.99
2022-12-15T14:59:19.255Z,72.01
2022-12-15T15:02:33.128Z,71.58
2022-12-15T15:03:10.012Z,66.43
2022-12-15T15:03:11.382Z,66.76
2022-12-15T15:05:46.819Z,71.07
2022-12-15T15:09:12.850Z,70.79
2022-12-15T15:12:28.934Z,70.57
2022-12-15T15:15:42.849Z,70.71
2022-12-15T15:18:56.469Z,69.88
2022-12-15T15:22:20.163Z,71.21
2022-12-15T15:25:40.269Z,70.83
2022-12-15T15:28:54.932Z,70.86
2022-12-15T15:32:15.985Z,70.98
2022-12-15T15:35:31.467Z,71.60
2022-12-15T15:38:47.375Z,71.20
2022-12-15T15:42:11.670Z,71.23
2022-12-15T15:45:25.576Z,71.40
2022-12-15T15:48:39.675Z,70.92
2022-12-15T15:51:53.588Z,71.40
2022-12-15T15:55:07.690Z,72.37
2022-12-15T15:58:22.933Z,72.78
2022-12-15T16:01:36.980Z,71.92
2022-12-15T16:04:51.031Z,72.48
2022-12-15T16:08:05.089Z,71.83
2022-12-15T16:11:18.564Z,71.59
2022-12-15T16:14:36.411Z,71.06
2022-12-15T16:17:50.320Z,72.48
2022-12-15T16:21:04.179Z,73.78
